sensor_id;sensor_type;location;lat;lon;timestamp;temperature;humidity
25949;DHT22;13961;51.178;4.448;2023-02-12T00:00:35;10.10;99.90
25949;DHT22;13961;51.178;4.448;2023-02-12T00:03:01;10.10;99.90
25949;DHT22;13961;51.178;4.448;2023-02-12T00:05:27;10.20;99.90
25949;DHT22;13961;51.178;4.448;2023-02-12T00:07:53;10.20;99.90
25949;DHT22;13961;51.178;4.448;2023-02-12T00:10:19;10.30;99.90
25949;DHT22;13961;51.178;4.448;2023-02-12T00:12:44;10.40;99.90
25949;DHT22;13961;51.178;4.448;2023-02-12T00:15:10;10.60;99.90
25949;DHT22;13961;51.178;4.448;2023-02-12T00:17:36;10.50;99.90
25949;DHT22;13961;51.178;4.448;2023-02-12T00:20:01;10.30;99.90
25949;DHT22;13961;51.178;4.448;2023-02-12T00:22:27;10.30;99.90
25949;DHT22;13961;51.178;4.448;2023-02-12T00:24:54;10.30;99.90
25949;DHT22;13961;51.178;4.448;2023-02-12T00:27:20;10.50;99.90
25949;DHT22;13961;51.178;4.448;2023-02-12T00:29:46;10.30;99.90
25949;DHT22;13961;51.178;4.448;2023-02-12T00:32:13;10.30;99.90
25949;DHT22;13961;51.178;4.448;2023-02-12T00:34:47;10.40;99.90
25949;DHT22;13961;51.178;4.448;2023-02-12T00:37:14;10.30;99.90
25949;DHT22;13961;51.178;4.448;2023-02-12T00:39:40;10.20;99.90
25949;DHT22;13961;51.178;4.448;2023-02-12T00:42:06;10.20;99.90
25949;DHT22;13961;51.178;4.448;2023-02-12T00:44:32;10.30;99.90
25949;DHT22;13961;51.178;4.448;2023-02-12T00:46:59;10.20;99.90
25949;DHT22;13961;51.178;4.448;2023-02-12T00:49:28;10.30;99.90
25949;DHT22;13961;51.178;4.448;2023-02-12T00:52:03;10.50;99.90
25949;DHT22;13961;51.178;4.448;2023-02-12T00:54:30;10.40;99.90
25949;DHT22;13961;51.178;4.448;2023-02-12T00:56:58;10.30;99.90
25949;DHT22;13961;51.178;4.448;2023-02-12T00:59:25;10.30;99.90
25949;DHT22;13961;51.178;4.448;2023-02-12T01:01:52;10.30;99.90
25949;DHT22;13961;51.178;4.448;2023-02-12T01:04:19;9.90;99.90
25949;DHT22;13961;51.178;4.448;2023-02-12T01:06:45;9.80;99.90
25949;DHT22;13961;51.178;4.448;2023-02-12T01:09:12;9.60;99.90
25949;DHT22;13961;51.178;4.448;2023-02-12T01:11:39;9.70;99.90
25949;DHT22;13961;51.178;4.448;2023-02-12T01:14:05;9.90;99.90
25949;DHT22;13961;51.178;4.448;2023-02-12T01:16:31;9.80;99.90
25949;DHT22;13961;51.178;4.448;2023-02-12T01:18:58;9.90;99.90
25949;DHT22;13961;51.178;4.448;2023-02-12T01:21:26;9.90;99.90
25949;DHT22;13961;51.178;4.448;2023-02-12T01:23:54;10.00;99.90
25949;DHT22;13961;51.178;4.448;2023-02-12T01:26:21;10.10;99.90
25949;DHT22;13961;51.178;4.448;2023-02-12T01:28:53;10.20;99.90
25949;DHT22;13961;51.178;4.448;2023-02-12T01:31:22;10.10;99.90
25949;DHT22;13961;51.178;4.448;2023-02-12T01:33:53;9.90;99.90
25949;DHT22;13961;51.178;4.448;2023-02-12T01:36:19;9.70;99.90
25949;DHT22;13961;51.178;4.448;2023-02-12T01:38:47;9.80;99.90
25949;DHT22;13961;51.178;4.448;2023-02-12T01:41:16;10.00;99.90
25949;DHT22;13961;51.178;4.448;2023-02-12T01:43:44;10.00;99.90
25949;DHT22;13961;51.178;4.448;2023-02-12T01:46:13;10.20;99.90
25949;DHT22;13961;51.178;4.448;2023-02-12T01:48:43;10.20;99.90
25949;DHT22;13961;51.178;4.448;2023-02-12T01:51:12;10.10;99.90
25949;DHT22;13961;51.178;4.448;2023-02-12T01:53:43;10.00;99.90
25949;DHT22;13961;51.178;4.448;2023-02-12T01:56:13;10.00;99.90
25949;DHT22;13961;51.178;4.448;2023-02-12T01:58:41;10.10;99.90
25949;DHT22;13961;51.178;4.448;2023-02-12T02:01:10;10.10;99.90
25949;DHT22;13961;51.178;4.448;2023-02-12T02:03:38;10.10;99.90
25949;DHT22;13961;51.178;4.448;2023-02-12T02:06:15;10.10;99.90
25949;DHT22;13961;51.178;4.448;2023-02-12T02:08:41;10.10;99.90
25949;DHT22;13961;51.178;4.448;2023-02-12T02:11:08;9.90;99.90
25949;DHT22;13961;51.178;4.448;2023-02-12T02:13:53;9.80;99.90
25949;DHT22;13961;51.178;4.448;2023-02-12T02:16:43;9.90;99.90
25949;DHT22;13961;51.178;4.448;2023-02-12T02:22:42;9.90;99.90
25949;DHT22;13961;51.178;4.448;2023-02-12T02:30:53;10.10;99.90
25949;DHT22;13961;51.178;4.448;2023-02-12T02:38:52;10.10;99.90
25949;DHT22;13961;51.178;4.448;2023-02-12T02:41:34;10.10;99.90
25949;DHT22;13961;51.178;4.448;2023-02-12T02:44:12;10.10;99.90
25949;DHT22;13961;51.178;4.448;2023-02-12T02:46:45;10.00;99.90
25949;DHT22;13961;51.178;4.448;2023-02-12T02:49:20;10.00;99.90
25949;DHT22;13961;51.178;4.448;2023-02-12T02:51:51;10.00;99.90
25949;DHT22;13961;51.178;4.448;2023-02-12T02:54:29;10.00;99.90
25949;DHT22;13961;51.178;4.448;2023-02-12T02:57:05;10.10;99.90
25949;DHT22;13961;51.178;4.448;2023-02-12T02:59:36;10.10;99.90
25949;DHT22;13961;51.178;4.448;2023-02-12T03:02:21;10.10;99.90
25949;DHT22;13961;51.178;4.448;2023-02-12T03:04:59;10.10;99.90
25949;DHT22;13961;51.178;4.448;2023-02-12T03:07:32;10.00;99.90
25949;DHT22;13961;51.178;4.448;2023-02-12T03:10:05;10.00;99.90
25949;DHT22;13961;51.178;4.448;2023-02-12T03:12:40;10.10;99.90
25949;DHT22;13961;51.178;4.448;2023-02-12T03:17:48;9.80;99.90
25949;DHT22;13961;51.178;4.448;2023-02-12T03:20:19;9.90;99.90
25949;DHT22;13961;51.178;4.448;2023-02-12T03:22:53;9.80;99.90
25949;DHT22;13961;51.178;4.448;2023-02-12T03:25:37;9.80;99.90
25949;DHT22;13961;51.178;4.448;2023-02-12T03:28:17;9.30;99.90
25949;DHT22;13961;51.178;4.448;2023-02-12T03:33:41;9.60;99.90
25949;DHT22;13961;51.178;4.448;2023-02-12T03:36:44;9.70;99.90
25949;DHT22;13961;51.178;4.448;2023-02-12T03:39:27;9.80;99.90
25949;DHT22;13961;51.178;4.448;2023-02-12T03:42:31;9.70;99.90
25949;DHT22;13961;51.178;4.448;2023-02-12T03:47:47;9.60;99.90
25949;DHT22;13961;51.178;4.448;2023-02-12T03:50:26;9.80;99.90
25949;DHT22;13961;51.178;4.448;2023-02-12T03:52:54;10.00;99.90
25949;DHT22;13961;51.178;4.448;2023-02-12T03:55:21;10.10;99.90
25949;DHT22;13961;51.178;4.448;2023-02-12T03:57:56;10.20;99.90
25949;DHT22;13961;51.178;4.448;2023-02-12T04:00:26;10.10;99.90
25949;DHT22;13961;51.178;4.448;2023-02-12T04:02:53;10.10;99.90
25949;DHT22;13961;51.178;4.448;2023-02-12T04:05:27;10.10;99.90
25949;DHT22;13961;51.178;4.448;2023-02-12T04:07:53;10.10;99.90
25949;DHT22;13961;51.178;4.448;2023-02-12T04:10:37;10.20;99.90
25949;DHT22;13961;51.178;4.448;2023-02-12T04:13:18;10.10;99.90
25949;DHT22;13961;51.178;4.448;2023-02-12T04:16:22;9.90;99.90
25949;DHT22;13961;51.178;4.448;2023-02-12T04:18:51;9.60;99.90
25949;DHT22;13961;51.178;4.448;2023-02-12T04:22:13;9.80;99.90
25949;DHT22;13961;51.178;4.448;2023-02-12T04:27:34;9.90;99.90
25949;DHT22;13961;51.178;4.448;2023-02-12T04:30:13;9.90;99.90
25949;DHT22;13961;51.178;4.448;2023-02-12T04:32:51;9.80;99.90
25949;DHT22;13961;51.178;4.448;2023-02-12T04:37:54;9.80;99.90
25949;DHT22;13961;51.178;4.448;2023-02-12T04:40:22;9.80;99.90
25949;DHT22;13961;51.178;4.448;2023-02-12T04:42:50;9.90;99.90
25949;DHT22;13961;51.178;4.448;2023-02-12T04:45:28;10.00;99.90
25949;DHT22;13961;51.178;4.448;2023-02-12T04:47:55;10.00;99.90
25949;DHT22;13961;51.178;4.448;2023-02-12T04:50:21;10.10;99.90
25949;DHT22;13961;51.178;4.448;2023-02-12T04:52:47;10.00;99.90
25949;DHT22;13961;51.178;4.448;2023-02-12T04:55:14;10.10;99.90
25949;DHT22;13961;51.178;4.448;2023-02-12T04:57:40;10.00;99.90
25949;DHT22;13961;51.178;4.448;2023-02-12T05:00:08;10.10;99.90
25949;DHT22;13961;51.178;4.448;2023-02-12T05:02:33;10.10;99.90
25949;DHT22;13961;51.178;4.448;2023-02-12T05:05:00;10.10;99.90
25949;DHT22;13961;51.178;4.448;2023-02-12T05:07:26;10.10;99.90
25949;DHT22;13961;51.178;4.448;2023-02-12T05:09:52;10.20;99.90
25949;DHT22;13961;51.178;4.448;2023-02-12T05:12:17;9.90;99.90
25949;DHT22;13961;51.178;4.448;2023-02-12T05:14:43;10.10;99.90
25949;DHT22;13961;51.178;4.448;2023-02-12T05:17:08;10.10;99.90
25949;DHT22;13961;51.178;4.448;2023-02-12T05:19:34;10.20;99.90
25949;DHT22;13961;51.178;4.448;2023-02-12T05:22:00;10.20;99.90
25949;DHT22;13961;51.178;4.448;2023-02-12T05:24:26;10.20;99.90
25949;DHT22;13961;51.178;4.448;2023-02-12T05:26:51;10.10;99.90
25949;DHT22;13961;51.178;4.448;2023-02-12T05:29:17;10.10;99.90
25949;DHT22;13961;51.178;4.448;2023-02-12T05:31:43;10.10;99.90
25949;DHT22;13961;51.178;4.448;2023-02-12T05:34:10;10.10;99.90
25949;DHT22;13961;51.178;4.448;2023-02-12T05:36:38;10.00;99.90
25949;DHT22;13961;51.178;4.448;2023-02-12T05:39:04;9.90;99.90
25949;DHT22;13961;51.178;4.448;2023-02-12T05:41:32;10.00;99.90
25949;DHT22;13961;51.178;4.448;2023-02-12T05:44:04;10.00;99.90
25949;DHT22;13961;51.178;4.448;2023-02-12T05:46:31;10.10;99.90
25949;DHT22;13961;51.178;4.448;2023-02-12T05:48:57;10.10;99.90
25949;DHT22;13961;51.178;4.448;2023-02-12T05:51:24;10.00;99.90
25949;DHT22;13961;51.178;4.448;2023-02-12T05:53:54;10.00;99.90
25949;DHT22;13961;51.178;4.448;2023-02-12T05:56:23;10.10;99.90
25949;DHT22;13961;51.178;4.448;2023-02-12T05:59:03;10.10;99.90
25949;DHT22;13961;51.178;4.448;2023-02-12T06:01:32;10.00;99.90
25949;DHT22;13961;51.178;4.448;2023-02-12T06:04:03;10.00;99.90
25949;DHT22;13961;51.178;4.448;2023-02-12T06:06:31;10.10;99.90
25949;DHT22;13961;51.178;4.448;2023-02-12T06:08:59;10.10;99.90
25949;DHT22;13961;51.178;4.448;2023-02-12T06:11:26;10.10;99.90
25949;DHT22;13961;51.178;4.448;2023-02-12T06:13:52;10.10;99.90
25949;DHT22;13961;51.178;4.448;2023-02-12T06:16:24;10.00;99.90
25949;DHT22;13961;51.178;4.448;2023-02-12T06:18:51;9.80;99.90
25949;DHT22;13961;51.178;4.448;2023-02-12T06:21:18;9.80;99.90
25949;DHT22;13961;51.178;4.448;2023-02-12T06:23:44;10.00;99.90
25949;DHT22;13961;51.178;4.448;2023-02-12T06:26:11;9.80;99.90
25949;DHT22;13961;51.178;4.448;2023-02-12T06:28:37;9.80;99.90
25949;DHT22;13961;51.178;4.448;2023-02-12T06:31:03;10.00;99.90
25949;DHT22;13961;51.178;4.448;2023-02-12T06:33:29;9.90;99.90
25949;DHT22;13961;51.178;4.448;2023-02-12T06:35:55;9.70;99.90
25949;DHT22;13961;51.178;4.448;2023-02-12T06:38:20;9.60;99.90
25949;DHT22;13961;51.178;4.448;2023-02-12T06:40:46;9.70;99.90
25949;DHT22;13961;51.178;4.448;2023-02-12T06:43:12;9.60;99.90
25949;DHT22;13961;51.178;4.448;2023-02-12T06:45:39;9.70;99.90
25949;DHT22;13961;51.178;4.448;2023-02-12T06:48:05;9.60;99.90
25949;DHT22;13961;51.178;4.448;2023-02-12T06:50:30;9.50;99.90
25949;DHT22;13961;51.178;4.448;2023-02-12T06:52:57;9.50;99.90
25949;DHT22;13961;51.178;4.448;2023-02-12T06:55:23;9.50;99.90
25949;DHT22;13961;51.178;4.448;2023-02-12T06:57:49;9.60;99.90
25949;DHT22;13961;51.178;4.448;2023-02-12T07:00:15;9.70;99.90
25949;DHT22;13961;51.178;4.448;2023-02-12T07:02:40;9.60;99.90
25949;DHT22;13961;51.178;4.448;2023-02-12T07:05:06;9.60;99.90
25949;DHT22;13961;51.178;4.448;2023-02-12T07:07:32;9.60;99.90
25949;DHT22;13961;51.178;4.448;2023-02-12T07:09:58;9.30;99.90
25949;DHT22;13961;51.178;4.448;2023-02-12T07:12:23;8.90;99.90
25949;DHT22;13961;51.178;4.448;2023-02-12T07:14:49;8.90;99.90
25949;DHT22;13961;51.178;4.448;2023-02-12T07:17:14;9.30;99.90
25949;DHT22;13961;51.178;4.448;2023-02-12T07:19:40;9.40;99.90
25949;DHT22;13961;51.178;4.448;2023-02-12T07:22:06;9.60;99.90
25949;DHT22;13961;51.178;4.448;2023-02-12T07:24:31;9.60;99.90
25949;DHT22;13961;51.178;4.448;2023-02-12T07:26:57;9.60;99.90
25949;DHT22;13961;51.178;4.448;2023-02-12T07:29:22;9.70;99.90
25949;DHT22;13961;51.178;4.448;2023-02-12T07:31:48;9.80;99.90
25949;DHT22;13961;51.178;4.448;2023-02-12T07:34:14;9.70;99.90
25949;DHT22;13961;51.178;4.448;2023-02-12T07:36:40;9.80;99.90
25949;DHT22;13961;51.178;4.448;2023-02-12T07:39:06;10.00;99.90
25949;DHT22;13961;51.178;4.448;2023-02-12T07:41:34;9.70;99.90
25949;DHT22;13961;51.178;4.448;2023-02-12T07:44:02;9.80;99.90
25949;DHT22;13961;51.178;4.448;2023-02-12T07:46:33;10.00;99.90
25949;DHT22;13961;51.178;4.448;2023-02-12T07:49:01;9.90;99.90
25949;DHT22;13961;51.178;4.448;2023-02-12T07:51:28;9.80;99.90
25949;DHT22;13961;51.178;4.448;2023-02-12T07:53:54;9.80;99.90
25949;DHT22;13961;51.178;4.448;2023-02-12T07:56:23;9.90;99.90
25949;DHT22;13961;51.178;4.448;2023-02-12T07:58:51;9.90;99.90
25949;DHT22;13961;51.178;4.448;2023-02-12T08:01:23;10.00;99.90
25949;DHT22;13961;51.178;4.448;2023-02-12T08:03:50;10.10;99.90
25949;DHT22;13961;51.178;4.448;2023-02-12T08:06:22;10.10;99.90
25949;DHT22;13961;51.178;4.448;2023-02-12T08:08:53;10.10;99.90
25949;DHT22;13961;51.178;4.448;2023-02-12T08:11:19;10.10;99.90
25949;DHT22;13961;51.178;4.448;2023-02-12T08:13:45;10.10;99.90
25949;DHT22;13961;51.178;4.448;2023-02-12T08:16:13;10.20;99.90
25949;DHT22;13961;51.178;4.448;2023-02-12T08:18:40;10.10;99.90
25949;DHT22;13961;51.178;4.448;2023-02-12T08:21:13;10.20;99.90
25949;DHT22;13961;51.178;4.448;2023-02-12T08:23:40;10.20;99.90
25949;DHT22;13961;51.178;4.448;2023-02-12T08:28:39;10.30;99.90
25949;DHT22;13961;51.178;4.448;2023-02-12T08:31:09;10.30;99.90
25949;DHT22;13961;51.178;4.448;2023-02-12T08:33:35;10.30;99.90
25949;DHT22;13961;51.178;4.448;2023-02-12T08:36:03;10.40;99.90
25949;DHT22;13961;51.178;4.448;2023-02-12T08:38:30;10.50;99.90
25949;DHT22;13961;51.178;4.448;2023-02-12T08:41:06;10.50;99.90
25949;DHT22;13961;51.178;4.448;2023-02-12T08:43:32;10.20;99.90
25949;DHT22;13961;51.178;4.448;2023-02-12T08:46:11;10.10;99.90
25949;DHT22;13961;51.178;4.448;2023-02-12T08:48:39;10.20;99.90
25949;DHT22;13961;51.178;4.448;2023-02-12T08:51:19;10.30;99.90
25949;DHT22;13961;51.178;4.448;2023-02-12T08:53:49;10.30;99.90
25949;DHT22;13961;51.178;4.448;2023-02-12T08:56:17;10.30;99.90
25949;DHT22;13961;51.178;4.448;2023-02-12T08:58:43;10.60;99.90
25949;DHT22;13961;51.178;4.448;2023-02-12T09:01:17;10.70;99.90
25949;DHT22;13961;51.178;4.448;2023-02-12T09:03:44;10.90;99.90
25949;DHT22;13961;51.178;4.448;2023-02-12T09:06:11;11.10;99.90
25949;DHT22;13961;51.178;4.448;2023-02-12T09:08:38;11.10;99.90
25949;DHT22;13961;51.178;4.448;2023-02-12T09:11:05;11.20;99.90
25949;DHT22;13961;51.178;4.448;2023-02-12T09:13:32;11.00;99.90
25949;DHT22;13961;51.178;4.448;2023-02-12T09:16:00;10.90;99.90
25949;DHT22;13961;51.178;4.448;2023-02-12T09:18:27;11.30;99.90
25949;DHT22;13961;51.178;4.448;2023-02-12T09:20:53;11.30;99.90
25949;DHT22;13961;51.178;4.448;2023-02-12T09:23:18;11.40;99.90
25949;DHT22;13961;51.178;4.448;2023-02-12T09:25:45;11.40;99.90
25949;DHT22;13961;51.178;4.448;2023-02-12T09:28:13;11.40;99.90
25949;DHT22;13961;51.178;4.448;2023-02-12T09:30:39;11.50;99.90
25949;DHT22;13961;51.178;4.448;2023-02-12T09:33:06;11.50;99.90
25949;DHT22;13961;51.178;4.448;2023-02-12T09:35:38;11.40;99.90
25949;DHT22;13961;51.178;4.448;2023-02-12T09:38:04;11.30;99.90
25949;DHT22;13961;51.178;4.448;2023-02-12T09:45:33;11.30;99.90
25949;DHT22;13961;51.178;4.448;2023-02-12T09:48:31;11.20;99.90
25949;DHT22;13961;51.178;4.448;2023-02-12T09:51:03;11.00;99.90
25949;DHT22;13961;51.178;4.448;2023-02-12T09:53:35;10.80;99.90
25949;DHT22;13961;51.178;4.448;2023-02-12T09:56:02;10.70;99.90
25949;DHT22;13961;51.178;4.448;2023-02-12T09:58:45;10.50;99.90
25949;DHT22;13961;51.178;4.448;2023-02-12T10:01:13;10.60;99.90
25949;DHT22;13961;51.178;4.448;2023-02-12T10:03:39;10.80;99.90
25949;DHT22;13961;51.178;4.448;2023-02-12T10:06:16;10.70;99.90
25949;DHT22;13961;51.178;4.448;2023-02-12T10:14:54;11.40;99.90
25949;DHT22;13961;51.178;4.448;2023-02-12T10:20:44;11.00;99.90
25949;DHT22;13961;51.178;4.448;2023-02-12T10:26:24;11.30;99.90
25949;DHT22;13961;51.178;4.448;2023-02-12T10:28:53;11.20;99.90
25949;DHT22;13961;51.178;4.448;2023-02-12T10:31:30;11.20;99.90
25949;DHT22;13961;51.178;4.448;2023-02-12T10:33:56;11.10;99.90
25949;DHT22;13961;51.178;4.448;2023-02-12T10:36:43;11.20;99.90
25949;DHT22;13961;51.178;4.448;2023-02-12T10:41:40;11.00;99.90
25949;DHT22;13961;51.178;4.448;2023-02-12T10:44:11;10.80;99.90
25949;DHT22;13961;51.178;4.448;2023-02-12T10:46:36;10.80;99.90
25949;DHT22;13961;51.178;4.448;2023-02-12T10:49:02;11.20;99.90
25949;DHT22;13961;51.178;4.448;2023-02-12T10:51:44;10.90;99.90
25949;DHT22;13961;51.178;4.448;2023-02-12T10:54:44;11.00;99.90
25949;DHT22;13961;51.178;4.448;2023-02-12T10:57:13;11.10;99.90
25949;DHT22;13961;51.178;4.448;2023-02-12T10:59:41;11.30;99.90
25949;DHT22;13961;51.178;4.448;2023-02-12T11:04:47;11.40;99.90
25949;DHT22;13961;51.178;4.448;2023-02-12T11:07:13;11.20;99.90
25949;DHT22;13961;51.178;4.448;2023-02-12T11:09:41;11.10;99.90
25949;DHT22;13961;51.178;4.448;2023-02-12T11:12:39;11.20;99.90
25949;DHT22;13961;51.178;4.448;2023-02-12T11:15:16;11.50;99.90
25949;DHT22;13961;51.178;4.448;2023-02-12T11:17:45;11.90;99.90
25949;DHT22;13961;51.178;4.448;2023-02-12T11:20:24;11.70;99.90
25949;DHT22;13961;51.178;4.448;2023-02-12T11:23:02;11.80;99.90
25949;DHT22;13961;51.178;4.448;2023-02-12T11:25:32;11.80;99.90
25949;DHT22;13961;51.178;4.448;2023-02-12T11:28:09;11.80;99.90
25949;DHT22;13961;51.178;4.448;2023-02-12T11:33:25;11.90;99.90
25949;DHT22;13961;51.178;4.448;2023-02-12T11:35:56;12.10;99.90
25949;DHT22;13961;51.178;4.448;2023-02-12T11:38:26;12.20;99.90
25949;DHT22;13961;51.178;4.448;2023-02-12T11:40:56;11.90;99.90
25949;DHT22;13961;51.178;4.448;2023-02-12T11:43:23;11.70;99.90
25949;DHT22;13961;51.178;4.448;2023-02-12T11:45:52;11.60;99.90
25949;DHT22;13961;51.178;4.448;2023-02-12T11:48:32;11.70;99.90
25949;DHT22;13961;51.178;4.448;2023-02-12T11:51:01;11.80;99.90
25949;DHT22;13961;51.178;4.448;2023-02-12T11:53:36;12.00;99.90
25949;DHT22;13961;51.178;4.448;2023-02-12T11:56:09;12.20;99.90
25949;DHT22;13961;51.178;4.448;2023-02-12T11:58:36;12.30;99.90
25949;DHT22;13961;51.178;4.448;2023-02-12T12:01:26;12.40;99.90
25949;DHT22;13961;51.178;4.448;2023-02-12T12:04:13;12.40;99.90
25949;DHT22;13961;51.178;4.448;2023-02-12T12:06:46;11.90;99.90
25949;DHT22;13961;51.178;4.448;2023-02-12T12:09:45;12.00;99.90
25949;DHT22;13961;51.178;4.448;2023-02-12T12:12:22;12.20;99.90
25949;DHT22;13961;51.178;4.448;2023-02-12T12:15:00;12.30;99.90
25949;DHT22;13961;51.178;4.448;2023-02-12T12:18:01;12.40;99.90
25949;DHT22;13961;51.178;4.448;2023-02-12T12:20:52;12.30;99.90
25949;DHT22;13961;51.178;4.448;2023-02-12T12:23:24;12.20;99.90
25949;DHT22;13961;51.178;4.448;2023-02-12T12:26:00;12.20;99.90
25949;DHT22;13961;51.178;4.448;2023-02-12T12:28:49;12.10;99.90
25949;DHT22;13961;51.178;4.448;2023-02-12T12:31:23;12.10;99.90
25949;DHT22;13961;51.178;4.448;2023-02-12T12:34:02;12.10;99.90
25949;DHT22;13961;51.178;4.448;2023-02-12T12:42:01;11.80;99.90
25949;DHT22;13961;51.178;4.448;2023-02-12T12:58:58;11.50;99.90
25949;DHT22;13961;51.178;4.448;2023-02-12T13:04:30;11.40;99.90
25949;DHT22;13961;51.178;4.448;2023-02-12T13:07:19;11.60;99.90
25949;DHT22;13961;51.178;4.448;2023-02-12T13:25:27;11.90;99.90
25949;DHT22;13961;51.178;4.448;2023-02-12T13:27:58;11.90;99.90
25949;DHT22;13961;51.178;4.448;2023-02-12T13:35:30;11.50;99.90
25949;DHT22;13961;51.178;4.448;2023-02-12T13:37:58;11.00;99.90
25949;DHT22;13961;51.178;4.448;2023-02-12T13:40:27;11.00;99.90
25949;DHT22;13961;51.178;4.448;2023-02-12T13:45:54;10.80;99.90
25949;DHT22;13961;51.178;4.448;2023-02-12T13:53:52;10.90;99.90
25949;DHT22;13961;51.178;4.448;2023-02-12T13:58:48;10.70;99.90
25949;DHT22;13961;51.178;4.448;2023-02-12T14:07:12;11.40;99.90
25949;DHT22;13961;51.178;4.448;2023-02-12T14:10:06;11.40;99.90
25949;DHT22;13961;51.178;4.448;2023-02-12T14:12:36;11.00;99.90
25949;DHT22;13961;51.178;4.448;2023-02-12T14:17:55;11.00;99.90
25949;DHT22;13961;51.178;4.448;2023-02-12T14:20:33;11.00;99.90
25949;DHT22;13961;51.178;4.448;2023-02-12T14:23:18;11.10;99.90
25949;DHT22;13961;51.178;4.448;2023-02-12T14:25:54;11.20;99.90
25949;DHT22;13961;51.178;4.448;2023-02-12T14:33:52;11.30;99.90
25949;DHT22;13961;51.178;4.448;2023-02-12T14:36:38;11.20;99.90
25949;DHT22;13961;51.178;4.448;2023-02-12T14:41:44;11.40;99.90
25949;DHT22;13961;51.178;4.448;2023-02-12T14:47:12;11.40;99.90
25949;DHT22;13961;51.178;4.448;2023-02-12T14:49:45;10.80;99.90
25949;DHT22;13961;51.178;4.448;2023-02-12T15:02:31;11.10;99.90
25949;DHT22;13961;51.178;4.448;2023-02-12T15:05:07;11.10;99.90
25949;DHT22;13961;51.178;4.448;2023-02-12T15:07:45;10.70;99.90
25949;DHT22;13961;51.178;4.448;2023-02-12T15:10:16;10.60;99.90
25949;DHT22;13961;51.178;4.448;2023-02-12T15:13:17;10.30;99.90
25949;DHT22;13961;51.178;4.448;2023-02-12T15:15:49;10.40;99.90
25949;DHT22;13961;51.178;4.448;2023-02-12T15:23:43;10.50;99.90
25949;DHT22;13961;51.178;4.448;2023-02-12T15:26:14;10.70;99.90
25949;DHT22;13961;51.178;4.448;2023-02-12T15:28:41;10.70;99.90
25949;DHT22;13961;51.178;4.448;2023-02-12T15:31:15;10.80;99.90
25949;DHT22;13961;51.178;4.448;2023-02-12T15:33:45;10.70;99.90
25949;DHT22;13961;51.178;4.448;2023-02-12T15:36:17;10.90;99.90
25949;DHT22;13961;51.178;4.448;2023-02-12T15:38:44;11.00;99.90
25949;DHT22;13961;51.178;4.448;2023-02-12T15:43:59;10.90;99.90
25949;DHT22;13961;51.178;4.448;2023-02-12T15:46:24;11.20;99.90
25949;DHT22;13961;51.178;4.448;2023-02-12T15:48:50;10.80;99.90
25949;DHT22;13961;51.178;4.448;2023-02-12T15:53:57;10.50;99.90
25949;DHT22;13961;51.178;4.448;2023-02-12T15:56:24;10.70;99.90
25949;DHT22;13961;51.178;4.448;2023-02-12T15:58:53;10.80;99.90
25949;DHT22;13961;51.178;4.448;2023-02-12T16:01:21;10.60;99.90
25949;DHT22;13961;51.178;4.448;2023-02-12T16:03:52;10.70;99.90
25949;DHT22;13961;51.178;4.448;2023-02-12T16:06:19;10.80;99.90
25949;DHT22;13961;51.178;4.448;2023-02-12T16:11:28;11.00;99.90
25949;DHT22;13961;51.178;4.448;2023-02-12T16:14:00;10.90;99.90
25949;DHT22;13961;51.178;4.448;2023-02-12T16:16:59;10.80;99.90
25949;DHT22;13961;51.178;4.448;2023-02-12T16:19:27;10.90;99.90
25949;DHT22;13961;51.178;4.448;2023-02-12T16:22:15;10.80;99.90
25949;DHT22;13961;51.178;4.448;2023-02-12T16:24:52;10.50;99.90
25949;DHT22;13961;51.178;4.448;2023-02-12T16:27:23;10.50;99.90
25949;DHT22;13961;51.178;4.448;2023-02-12T16:29:52;10.80;99.90
25949;DHT22;13961;51.178;4.448;2023-02-12T16:37:40;10.70;99.90
25949;DHT22;13961;51.178;4.448;2023-02-12T16:42:55;10.80;99.90
25949;DHT22;13961;51.178;4.448;2023-02-12T16:48:00;10.70;99.90
25949;DHT22;13961;51.178;4.448;2023-02-12T16:50:29;10.80;99.90
25949;DHT22;13961;51.178;4.448;2023-02-12T16:53:00;10.70;99.90
25949;DHT22;13961;51.178;4.448;2023-02-12T16:55:26;10.60;99.90
25949;DHT22;13961;51.178;4.448;2023-02-12T16:57:52;10.60;99.90
25949;DHT22;13961;51.178;4.448;2023-02-12T17:00:17;10.60;99.90
25949;DHT22;13961;51.178;4.448;2023-02-12T17:02:43;10.50;99.90
25949;DHT22;13961;51.178;4.448;2023-02-12T17:05:16;10.20;99.90
25949;DHT22;13961;51.178;4.448;2023-02-12T17:07:43;10.30;99.90
25949;DHT22;13961;51.178;4.448;2023-02-12T17:10:13;10.60;99.90
25949;DHT22;13961;51.178;4.448;2023-02-12T17:12:50;10.70;99.90
25949;DHT22;13961;51.178;4.448;2023-02-12T17:15:27;10.90;99.90
25949;DHT22;13961;51.178;4.448;2023-02-12T17:17:54;10.90;99.90
25949;DHT22;13961;51.178;4.448;2023-02-12T17:20:20;10.90;99.90
25949;DHT22;13961;51.178;4.448;2023-02-12T17:22:54;10.90;99.90
25949;DHT22;13961;51.178;4.448;2023-02-12T17:25:21;11.00;99.90
25949;DHT22;13961;51.178;4.448;2023-02-12T17:27:47;11.00;99.90
25949;DHT22;13961;51.178;4.448;2023-02-12T17:30:16;11.00;99.90
25949;DHT22;13961;51.178;4.448;2023-02-12T17:32:42;10.90;99.90
25949;DHT22;13961;51.178;4.448;2023-02-12T17:35:09;10.90;99.90
25949;DHT22;13961;51.178;4.448;2023-02-12T17:37:34;10.90;99.90
25949;DHT22;13961;51.178;4.448;2023-02-12T17:40:00;10.70;99.90
25949;DHT22;13961;51.178;4.448;2023-02-12T17:42:26;10.70;99.90
25949;DHT22;13961;51.178;4.448;2023-02-12T17:44:52;10.80;99.90
25949;DHT22;13961;51.178;4.448;2023-02-12T17:47:18;10.70;99.90
25949;DHT22;13961;51.178;4.448;2023-02-12T17:49:43;10.70;99.90
25949;DHT22;13961;51.178;4.448;2023-02-12T17:52:09;10.60;99.90
25949;DHT22;13961;51.178;4.448;2023-02-12T17:54:35;10.30;99.90
25949;DHT22;13961;51.178;4.448;2023-02-12T17:57:02;10.20;99.90
25949;DHT22;13961;51.178;4.448;2023-02-12T17:59:28;10.30;99.90
25949;DHT22;13961;51.178;4.448;2023-02-12T18:01:54;10.30;99.90
25949;DHT22;13961;51.178;4.448;2023-02-12T18:04:20;10.30;99.90
25949;DHT22;13961;51.178;4.448;2023-02-12T18:06:46;10.60;99.90
25949;DHT22;13961;51.178;4.448;2023-02-12T18:09:12;10.50;99.90
25949;DHT22;13961;51.178;4.448;2023-02-12T18:11:38;10.30;99.90
25949;DHT22;13961;51.178;4.448;2023-02-12T18:14:06;10.20;99.90
25949;DHT22;13961;51.178;4.448;2023-02-12T18:16:33;10.40;99.90
25949;DHT22;13961;51.178;4.448;2023-02-12T18:19:00;10.50;99.90
25949;DHT22;13961;51.178;4.448;2023-02-12T18:21:26;10.50;99.90
25949;DHT22;13961;51.178;4.448;2023-02-12T18:23:53;10.50;99.90
25949;DHT22;13961;51.178;4.448;2023-02-12T18:26:18;10.60;99.90
25949;DHT22;13961;51.178;4.448;2023-02-12T18:28:44;10.50;99.90
25949;DHT22;13961;51.178;4.448;2023-02-12T18:31:10;10.60;99.90
25949;DHT22;13961;51.178;4.448;2023-02-12T18:33:36;10.60;99.90
25949;DHT22;13961;51.178;4.448;2023-02-12T18:36:08;10.70;99.90
25949;DHT22;13961;51.178;4.448;2023-02-12T18:38:36;10.70;99.90
25949;DHT22;13961;51.178;4.448;2023-02-12T18:41:11;10.80;99.90